createdAt,value
2019-03-04T00:01:40.308Z,-0.54
2019-03-04T00:04:11.795Z,-0.35
2019-03-04T00:06:43.256Z,-0.36
2019-03-04T00:09:14.690Z,-0.45
2019-03-04T00:11:46.145Z,-0.44
2019-03-04T00:14:17.591Z,-0.61
2019-03-04T00:16:49.257Z,-0.64
2019-03-04T00:19:20.598Z,-0.45
2019-03-04T00:21:52.054Z,-0.59
2019-03-04T00:24:23.601Z,-0.41
2019-03-04T00:26:55.103Z,-0.44
2019-03-04T00:29:27.512Z,-0.59
2019-03-04T00:31:58.992Z,-0.60
2019-03-04T00:34:30.467Z,-0.40
2019-03-04T00:37:01.967Z,-0.65
2019-03-04T00:39:33.302Z,-0.65
2019-03-04T00:42:04.690Z,-0.67
2019-03-04T00:44:36.019Z,-0.49
2019-03-04T00:47:07.480Z,-0.47
2019-03-04T00:49:38.897Z,-0.64
2019-03-04T00:52:10.365Z,-0.69
2019-03-04T00:54:41.861Z,-0.64
2019-03-04T00:57:13.187Z,-0.62
2019-03-04T00:59:44.523Z,-0.63
2019-03-04T01:02:15.957Z,-0.62
2019-03-04T01:04:47.269Z,-0.49
2019-03-04T01:07:18.609Z,-0.64
2019-03-04T01:09:50.469Z,-0.53
2019-03-04T01:12:21.803Z,-0.63
2019-03-04T01:14:53.222Z,-0.61
2019-03-04T01:17:24.590Z,-0.51
2019-03-04T01:19:55.963Z,-0.66
2019-03-04T01:22:27.359Z,-0.68
2019-03-04T01:24:58.811Z,-0.68
2019-03-04T01:27:30.200Z,-0.72
2019-03-04T01:30:01.584Z,-0.65
2019-03-04T01:32:33.013Z,-0.74
2019-03-04T01:35:05.609Z,-0.71
2019-03-04T01:37:36.999Z,-0.68
2019-03-04T01:40:14.441Z,-0.72
2019-03-04T01:42:45.812Z,-0.65
2019-03-04T01:45:18.175Z,-0.84
2019-03-04T01:47:49.654Z,-0.87
2019-03-04T01:50:21.064Z,-0.77
2019-03-04T01:52:52.398Z,-0.87
2019-03-04T01:55:23.795Z,-0.75
2019-03-04T01:57:55.249Z,-0.83
2019-03-04T02:00:26.701Z,-0.80
2019-03-04T02:02:58.140Z,-0.82
2019-03-04T02:05:29.523Z,-0.80
2019-03-04T02:08:00.945Z,-0.85
2019-03-04T02:10:32.402Z,-0.77
2019-03-04T02:13:04.983Z,-0.73
2019-03-04T02:15:36.382Z,-0.62
2019-03-04T02:18:07.855Z,-0.60
2019-03-04T02:20:39.321Z,-0.64
2019-03-04T02:23:10.647Z,-0.62
2019-03-04T02:25:45.348Z,-0.62
2019-03-04T02:28:16.601Z,-0.61
2019-03-04T02:30:48.100Z,-0.51
2019-03-04T02:33:19.814Z,-0.53
2019-03-04T02:35:51.245Z,-0.51
2019-03-04T02:38:22.760Z,-0.38
2019-03-04T02:40:54.094Z,-0.43
2019-03-04T02:43:26.455Z,-0.39
2019-03-04T02:45:57.930Z,-0.39
2019-03-04T02:48:29.261Z,-0.34
2019-03-04T02:51:00.613Z,-0.42
2019-03-04T02:53:31.942Z,-0.36
2019-03-04T02:56:03.409Z,-0.22
2019-03-04T02:58:34.861Z,-0.23
2019-03-04T03:01:06.534Z,-0.19
2019-03-04T03:03:37.971Z,-0.33
2019-03-04T03:06:09.422Z,-0.18
2019-03-04T03:08:40.763Z,-0.17
2019-03-04T03:11:12.111Z,-0.18
2019-03-04T03:13:43.567Z,-0.19
2019-03-04T03:16:15.017Z,-0.25
2019-03-04T03:18:46.397Z,-0.20
2019-03-04T03:21:17.832Z,-0.08
2019-03-04T03:23:49.226Z,-0.01
2019-03-04T03:26:20.711Z,-0.20
2019-03-04T03:28:52.029Z,-0.10
2019-03-04T03:31:23.516Z,-0.16
2019-03-04T03:33:54.875Z,-0.08
2019-03-04T03:36:26.336Z,-0.03
2019-03-04T03:38:57.619Z,-0.06
2019-03-04T03:41:29.114Z,-0.05
2019-03-04T03:44:00.495Z,-0.04
2019-03-04T03:46:31.845Z,-0.15
2019-03-04T03:49:03.282Z,-0.03
2019-03-04T03:51:34.801Z,0.00
2019-03-04T03:54:06.267Z,-0.04
2019-03-04T03:56:37.819Z,0.02
2019-03-04T03:59:09.149Z,0.05
2019-03-04T04:01:40.473Z,0.13
2019-03-04T04:04:11.944Z,0.06
2019-03-04T04:06:43.605Z,0.19
2019-03-04T04:09:15.163Z,0.05
2019-03-04T04:11:46.394Z,0.16
2019-03-04T04:14:17.864Z,0.20
2019-03-04T04:16:49.290Z,0.20
2019-03-04T04:19:20.762Z,0.35
2019-03-04T04:21:52.197Z,0.32
2019-03-04T04:24:23.560Z,0.31
2019-03-04T04:26:55.005Z,0.26
2019-03-04T04:29:26.333Z,0.28
2019-03-04T04:31:57.743Z,0.31
2019-03-04T04:34:29.109Z,0.30
2019-03-04T04:37:00.412Z,0.19
2019-03-04T04:39:31.760Z,0.47
2019-03-04T04:42:03.204Z,0.45
2019-03-04T04:44:34.631Z,0.23
2019-03-04T04:47:06.865Z,0.35
2019-03-04T04:49:38.259Z,0.36
2019-03-04T04:52:09.574Z,0.42
2019-03-04T04:54:40.904Z,0.48
2019-03-04T04:57:12.228Z,0.55
2019-03-04T04:59:43.653Z,0.71
2019-03-04T05:02:14.908Z,0.71
2019-03-04T05:04:46.270Z,0.75
2019-03-04T05:07:17.642Z,0.88
2019-03-04T05:09:49.011Z,0.78
2019-03-04T05:12:20.391Z,0.84
2019-03-04T05:14:51.843Z,0.93
2019-03-04T05:17:23.162Z,1.00
2019-03-04T05:19:54.538Z,0.98
2019-03-04T05:22:25.919Z,1.11
2019-03-04T05:24:57.437Z,1.23
2019-03-04T05:27:28.991Z,1.28
2019-03-04T05:30:00.355Z,1.42
2019-03-04T05:32:31.894Z,1.50
2019-03-04T05:35:03.239Z,1.47
2019-03-04T05:37:34.674Z,1.67
2019-03-04T05:40:11.607Z,1.65
2019-03-04T05:42:43.292Z,1.83
2019-03-04T05:45:16.067Z,1.70
2019-03-04T05:47:47.561Z,1.98
2019-03-04T05:50:26.343Z,1.98
2019-03-04T05:52:57.704Z,2.03
2019-03-04T05:55:29.284Z,2.02
2019-03-04T05:58:00.637Z,2.05
2019-03-04T06:00:39.306Z,2.25
2019-03-04T06:03:16.939Z,2.25
2019-03-04T06:05:48.387Z,2.42
2019-03-04T06:08:19.854Z,2.46
2019-03-04T06:10:51.227Z,2.38
2019-03-04T06:13:22.539Z,2.56
2019-03-04T06:15:53.859Z,2.60
2019-03-04T06:18:25.333Z,2.66
2019-03-04T06:20:56.680Z,2.65
2019-03-04T06:23:28.120Z,2.58
2019-03-04T06:25:59.598Z,2.77
2019-03-04T06:28:30.950Z,2.81
2019-03-04T06:31:02.478Z,2.71
2019-03-04T06:33:34.115Z,2.89
2019-03-04T06:36:05.566Z,3.04
2019-03-04T06:38:36.894Z,3.12
2019-03-04T06:41:08.270Z,3.22
2019-03-04T06:43:40.136Z,3.47
2019-03-04T06:46:11.567Z,3.60
2019-03-04T06:48:43.046Z,3.49
2019-03-04T06:51:23.836Z,3.63
2019-03-04T06:54:07.355Z,3.86
2019-03-04T06:56:47.165Z,3.88
2019-03-04T06:59:39.644Z,3.93
2019-03-04T07:02:19.999Z,4.05
2019-03-04T07:05:00.389Z,4.25
2019-03-04T07:07:31.806Z,4.71
2019-03-04T07:10:03.172Z,4.96
2019-03-04T07:12:34.587Z,5.16
2019-03-04T07:15:07.756Z,5.03
2019-03-04T07:17:39.145Z,5.13
2019-03-04T07:20:15.947Z,4.93
2019-03-04T07:22:48.509Z,5.13
2019-03-04T07:25:20.277Z,5.11
2019-03-04T07:27:51.642Z,5.33
2019-03-04T07:30:23.044Z,5.40
2019-03-04T07:32:54.398Z,5.62
2019-03-04T07:35:25.746Z,5.45
2019-03-04T07:38:11.607Z,5.34
2019-03-04T07:40:43.097Z,5.33
2019-03-04T07:43:14.538Z,5.48
2019-03-04T07:45:45.985Z,5.60
2019-03-04T07:48:18.095Z,5.86
2019-03-04T07:50:49.627Z,6.17
2019-03-04T07:53:22.062Z,6.14
2019-03-04T07:55:53.467Z,6.25
2019-03-04T07:58:25.880Z,6.06
2019-03-04T08:00:57.372Z,6.11
2019-03-04T08:03:28.729Z,6.25
2019-03-04T08:06:01.684Z,6.22
2019-03-04T18:42:15.931Z,5.97
2019-03-04T18:45:08.419Z,5.95
2019-03-04T18:47:54.686Z,5.84
2019-03-04T18:50:26.419Z,5.98
2019-03-04T18:52:57.767Z,5.86
2019-03-04T18:55:30.643Z,5.81
2019-03-04T18:58:02.020Z,5.72
2019-03-04T19:00:33.453Z,5.81
2019-03-04T19:03:04.901Z,5.80
2019-03-04T19:05:36.397Z,5.74
2019-03-04T19:08:08.133Z,5.63
2019-03-04T19:10:39.644Z,5.55
2019-03-04T19:13:11.037Z,5.57
2019-03-04T19:15:43.532Z,5.58
2019-03-04T19:18:14.868Z,5.64
2019-03-04T19:20:46.443Z,5.57
2019-03-04T19:23:17.906Z,5.54
2019-03-04T19:25:49.417Z,5.62
2019-03-04T19:28:20.777Z,5.53
2019-03-04T19:30:52.130Z,5.39
2019-03-04T19:33:23.508Z,5.40
2019-03-04T19:35:54.973Z,5.34
2019-03-04T19:38:26.476Z,5.32
2019-03-04T19:40:57.969Z,5.38
2019-03-04T19:43:32.969Z,5.28
2019-03-04T19:46:02.475Z,5.35
2019-03-04T19:48:33.957Z,5.30
2019-03-04T19:51:05.263Z,5.31
2019-03-04T19:53:38.510Z,5.20
2019-03-04T19:56:12.691Z,5.25
2019-03-04T19:58:47.482Z,5.15
2019-03-04T20:01:40.308Z,5.18
2019-03-04T20:04:14.614Z,5.09
2019-03-04T20:06:51.536Z,5.05
2019-03-04T20:09:26.408Z,5.03
2019-03-04T20:11:59.421Z,5.06
2019-03-04T20:14:31.767Z,4.97
2019-03-04T20:17:03.237Z,5.04
2019-03-04T20:19:37.388Z,4.94
2019-03-04T20:22:08.645Z,4.97
2019-03-04T20:24:40.148Z,5.01
2019-03-04T20:27:11.536Z,4.92
2019-03-04T20:29:42.842Z,4.93
2019-03-04T20:32:14.385Z,4.88
2019-03-04T20:34:45.698Z,4.83
2019-03-04T20:37:17.050Z,4.76
2019-03-04T20:39:48.530Z,4.81
2019-03-04T20:42:19.976Z,4.72
2019-03-04T20:44:51.310Z,4.87
2019-03-04T20:47:22.660Z,4.75
2019-03-04T20:49:54.220Z,4.75
2019-03-04T20:52:25.540Z,4.70
2019-03-04T20:54:56.910Z,4.68
2019-03-04T20:57:28.337Z,4.70
2019-03-04T20:59:59.702Z,4.71
2019-03-04T21:02:31.006Z,4.69
2019-03-04T21:05:02.454Z,4.69
2019-03-04T21:07:34.967Z,4.64
2019-03-04T21:10:11.839Z,4.65
2019-03-04T21:12:43.181Z,4.66
2019-03-04T21:15:15.308Z,4.61
2019-03-04T21:17:46.803Z,4.59
2019-03-04T21:20:19.175Z,4.57
2019-03-04T21:22:50.483Z,4.59
2019-03-04T21:25:51.255Z,4.52
2019-03-04T21:28:34.345Z,4.42
2019-03-04T21:31:17.607Z,4.48
2019-03-04T21:33:54.696Z,4.46
2019-03-04T21:36:35.235Z,4.33
2019-03-04T21:39:08.183Z,4.30
2019-03-04T21:41:43.377Z,4.34
2019-03-04T21:44:23.878Z,4.32
2019-03-04T21:47:03.792Z,4.35
2019-03-04T21:49:39.150Z,4.24
2019-03-04T21:52:43.755Z,4.30
2019-03-04T21:55:21.329Z,4.20
2019-03-04T21:57:54.383Z,4.28
2019-03-04T22:00:30.117Z,4.37
2019-03-04T22:03:04.619Z,4.31
2019-03-04T22:05:37.334Z,4.31
2019-03-04T22:08:08.924Z,4.22
2019-03-04T22:10:40.321Z,4.34
2019-03-04T22:13:11.789Z,4.36
2019-03-04T22:15:43.360Z,4.29
2019-03-04T22:18:14.699Z,4.30
2019-03-04T22:20:46.016Z,4.33
2019-03-04T22:23:17.337Z,4.33
2019-03-04T22:25:48.707Z,4.20
2019-03-04T22:28:20.284Z,4.21
2019-03-04T22:30:51.673Z,4.20
2019-03-04T22:33:23.048Z,4.14
2019-03-04T22:35:54.421Z,4.20
2019-03-04T22:38:25.876Z,4.25
2019-03-04T22:40:57.173Z,4.15
2019-03-04T22:43:28.571Z,4.15
2019-03-04T22:45:59.901Z,4.11
2019-03-04T22:48:31.366Z,4.02
2019-03-04T22:51:02.866Z,4.04
2019-03-04T22:53:34.180Z,4.12
2019-03-04T22:56:05.624Z,4.03
2019-03-04T22:58:36.976Z,4.05
2019-03-04T23:01:15.791Z,4.10
2019-03-04T23:03:47.620Z,4.14
2019-03-04T23:06:28.093Z,4.03
2019-03-04T23:08:59.561Z,4.15
2019-03-04T23:11:31.977Z,4.19
2019-03-04T23:14:09.289Z,4.15
2019-03-04T23:16:40.743Z,4.23
2019-03-04T23:19:12.076Z,4.24
2019-03-04T23:21:43.473Z,4.37
2019-03-04T23:24:14.928Z,4.30
2019-03-04T23:26:46.173Z,4.29
2019-03-04T23:29:17.483Z,4.35
2019-03-04T23:31:48.965Z,4.28
2019-03-04T23:34:20.148Z,4.37
2019-03-04T23:36:51.562Z,4.40
2019-03-04T23:39:23.041Z,4.39
2019-03-04T23:41:54.401Z,4.45
2019-03-04T23:44:25.779Z,4.48
2019-03-04T23:46:57.084Z,4.48
2019-03-04T23:49:28.522Z,4.55
2019-03-04T23:51:59.853Z,4.61
2019-03-04T23:54:31.218Z,4.55
2019-03-04T23:57:02.632Z,4.55
2019-03-04T23:59:33.955Z,4.68
